createdAt,value
2023-04-22T00:00:19.347Z,998.41
2023-04-22T00:01:19.308Z,998.35
2023-04-22T00:02:19.356Z,998.39
2023-04-22T00:03:19.502Z,998.35
2023-04-22T00:04:19.578Z,998.32
2023-04-22T00:05:20.467Z,998.32
2023-04-22T00:06:19.266Z,998.32
2023-04-22T00:07:19.236Z,998.26
2023-04-22T00:08:19.241Z,998.33
2023-04-22T00:09:19.262Z,998.31
2023-04-22T00:10:19.210Z,998.34
2023-04-22T00:11:19.198Z,998.29
2023-04-22T00:12:19.181Z,998.36
2023-04-22T00:13:19.166Z,998.30
2023-04-22T00:14:19.168Z,998.33
2023-04-22T00:15:19.124Z,998.31
2023-04-22T00:16:19.145Z,998.35
2023-04-22T00:17:19.150Z,998.34
2023-04-22T00:18:19.096Z,998.35
2023-04-22T00:19:19.112Z,998.32
2023-04-22T00:20:19.068Z,998.32
2023-04-22T00:21:19.067Z,998.31
2023-04-22T00:22:19.067Z,998.33
2023-04-22T00:23:19.055Z,998.33
2023-04-22T00:24:19.035Z,998.27
2023-04-22T00:25:18.997Z,998.31
2023-04-22T00:26:19.000Z,998.28
2023-04-22T00:27:18.968Z,998.29
2023-04-22T00:28:19.003Z,998.25
2023-04-22T00:29:19.064Z,998.26
2023-04-22T00:30:18.959Z,998.29
2023-04-22T00:31:18.989Z,998.27
2023-04-22T00:32:18.906Z,998.25
2023-04-22T00:33:18.897Z,998.27
2023-04-22T00:34:18.958Z,998.23
2023-04-22T00:35:18.888Z,998.28
2023-04-22T00:36:18.876Z,998.26
2023-04-22T00:37:18.837Z,998.23
2023-04-22T00:38:18.848Z,998.19
2023-04-22T00:39:18.834Z,998.14
2023-04-22T00:40:18.812Z,998.18
2023-04-22T00:41:18.786Z,998.16
2023-04-22T00:42:18.779Z,998.18
2023-04-22T00:43:18.771Z,998.17
2023-04-22T00:44:18.768Z,998.15
2023-04-22T00:45:18.766Z,998.15
2023-04-22T00:46:18.769Z,998.12
2023-04-22T00:47:18.715Z,998.13
2023-04-22T00:48:18.739Z,998.09
2023-04-22T00:49:18.698Z,998.09
2023-04-22T00:50:18.672Z,998.07
2023-04-22T00:51:18.659Z,998.05
2023-04-22T00:52:18.646Z,998.08
2023-04-22T00:53:18.638Z,998.07
2023-04-22T00:54:18.633Z,998.13
2023-04-22T00:55:18.611Z,998.11
2023-04-22T00:56:18.584Z,998.08
2023-04-22T00:57:18.585Z,998.07
2023-04-22T00:58:18.571Z,998.07
2023-04-22T00:59:18.562Z,998.07
2023-04-22T01:00:18.534Z,998.07
2023-04-22T01:01:18.560Z,998.03
2023-04-22T01:02:18.640Z,997.98
2023-04-22T01:03:18.627Z,998.01
2023-04-22T01:04:18.682Z,998.01
2023-04-22T01:05:18.477Z,997.99
2023-04-22T01:06:18.482Z,998.01
2023-04-22T01:07:18.444Z,998.02
2023-04-22T01:08:18.461Z,998.06
2023-04-22T01:09:18.432Z,998.00
2023-04-22T01:10:18.403Z,997.99
2023-04-22T01:11:18.405Z,998.00
2023-04-22T01:12:18.393Z,998.01
2023-04-22T01:13:18.375Z,998.02
2023-04-22T01:14:18.365Z,998.00
2023-04-22T01:15:18.351Z,998.03
2023-04-22T01:16:18.412Z,997.99
2023-04-22T01:17:18.310Z,998.01
2023-04-22T01:18:18.322Z,998.01
2023-04-22T01:19:18.301Z,998.05
2023-04-22T01:20:18.279Z,998.03
2023-04-22T01:21:18.269Z,998.00
2023-04-22T01:22:18.254Z,998.00
2023-04-22T01:23:18.246Z,998.00
2023-04-22T01:24:18.222Z,997.98
2023-04-22T01:25:18.228Z,997.99
2023-04-22T01:26:18.210Z,997.95
2023-04-22T01:27:18.183Z,997.95
2023-04-22T01:28:18.189Z,997.93
2023-04-22T01:29:18.194Z,997.92
2023-04-22T01:30:18.163Z,997.93
2023-04-22T01:31:18.126Z,997.93
2023-04-22T01:32:18.236Z,997.93
2023-04-22T01:33:18.173Z,997.92
2023-04-22T01:34:18.102Z,997.95
2023-04-22T01:35:18.072Z,997.90
2023-04-22T01:36:18.067Z,997.91
2023-04-22T01:37:18.068Z,997.83
2023-04-22T01:38:18.069Z,997.86
2023-04-22T01:39:18.028Z,997.84
2023-04-22T01:40:18.030Z,997.87
2023-04-22T01:41:18.018Z,997.90
2023-04-22T01:42:17.994Z,997.89
2023-04-22T01:43:18.001Z,997.92
2023-04-22T01:44:17.964Z,997.88
2023-04-22T01:45:17.937Z,997.93
2023-04-22T01:46:18.011Z,997.87
2023-04-22T01:47:17.925Z,997.89
2023-04-22T01:48:17.963Z,997.88
2023-04-22T01:49:17.956Z,997.89
2023-04-22T01:50:17.892Z,997.84
2023-04-22T01:51:17.902Z,997.85
2023-04-22T01:52:17.869Z,997.88
2023-04-22T01:53:17.875Z,997.83
2023-04-22T01:54:17.840Z,997.82
2023-04-22T01:55:17.824Z,997.85
2023-04-22T01:56:17.814Z,997.83
2023-04-22T01:57:17.840Z,997.83
2023-04-22T01:58:17.791Z,997.85
2023-04-22T01:59:17.808Z,997.90
2023-04-22T02:00:17.765Z,997.90
2023-04-22T02:01:17.827Z,997.82
2023-04-22T02:02:17.914Z,997.91
2023-04-22T02:03:17.848Z,997.89
2023-04-22T02:04:17.710Z,997.88
2023-04-22T02:05:17.719Z,997.94
2023-04-22T02:06:17.680Z,997.93
2023-04-22T02:07:17.672Z,997.92
2023-04-22T02:08:17.682Z,997.89
2023-04-22T02:09:17.662Z,997.89
2023-04-22T02:10:17.616Z,997.88
2023-04-22T02:11:17.628Z,997.88
2023-04-22T02:12:17.609Z,997.92
2023-04-22T02:13:17.619Z,997.96
2023-04-22T02:14:17.591Z,997.93
2023-04-22T02:15:17.595Z,997.94
2023-04-22T02:16:17.602Z,997.89
2023-04-22T02:17:17.548Z,997.95
2023-04-22T02:18:17.554Z,997.92
2023-04-22T02:19:17.522Z,997.88
2023-04-22T02:20:17.515Z,997.90
2023-04-22T02:21:17.481Z,997.86
2023-04-22T02:22:17.485Z,997.84
2023-04-22T02:23:17.473Z,997.88
2023-04-22T02:24:17.433Z,997.82
2023-04-22T02:25:17.438Z,997.86
2023-04-22T02:26:17.420Z,997.80
2023-04-22T02:27:17.459Z,997.84
2023-04-22T02:28:17.409Z,997.80
2023-04-22T02:29:17.387Z,997.82
2023-04-22T02:30:17.367Z,997.77
2023-04-22T02:31:17.539Z,997.78
2023-04-22T02:32:17.334Z,997.82
2023-04-22T02:33:17.345Z,997.76
2023-04-22T02:34:17.307Z,997.78
2023-04-22T02:35:17.305Z,997.76
2023-04-22T02:36:17.302Z,997.76
2023-04-22T02:37:17.287Z,997.80
2023-04-22T02:38:17.264Z,997.79
2023-04-22T02:39:17.255Z,997.76
2023-04-22T02:40:17.247Z,997.78
2023-04-22T02:41:17.213Z,997.79
2023-04-22T02:42:17.213Z,997.82
2023-04-22T02:43:17.210Z,997.80
2023-04-22T02:44:17.170Z,997.81
2023-04-22T02:45:17.169Z,997.77
2023-04-22T02:46:17.188Z,997.82
2023-04-22T02:47:17.142Z,997.81
2023-04-22T02:48:17.145Z,997.81
2023-04-22T02:49:17.145Z,997.78
2023-04-22T02:50:17.108Z,997.79
2023-04-22T02:51:17.106Z,997.80
2023-04-22T02:52:17.079Z,997.77
2023-04-22T02:53:17.068Z,997.79
2023-04-22T02:54:17.074Z,997.78
2023-04-22T02:55:17.031Z,997.73
2023-04-22T02:56:17.081Z,997.70
2023-04-22T02:57:17.027Z,997.72
2023-04-22T02:58:17.014Z,997.71
2023-04-22T02:59:16.975Z,997.69
2023-04-22T03:00:16.982Z,997.74
2023-04-22T03:01:17.060Z,997.71
2023-04-22T03:02:17.019Z,997.74
2023-04-22T03:03:17.287Z,997.75
2023-04-22T03:04:17.049Z,997.84
2023-04-22T03:05:16.906Z,997.79
2023-04-22T03:06:16.880Z,997.84
2023-04-22T03:07:16.877Z,997.83
2023-04-22T03:08:16.872Z,997.88
2023-04-22T03:09:16.849Z,997.91
2023-04-22T03:10:16.864Z,997.85
2023-04-22T03:11:16.832Z,997.81
2023-04-22T03:12:16.813Z,997.82
2023-04-22T03:13:16.791Z,997.86
2023-04-22T03:14:16.801Z,997.82
2023-04-22T03:15:19.590Z,997.83
2023-04-22T03:16:16.834Z,997.81
2023-04-22T03:17:16.758Z,997.82
2023-04-22T03:18:16.745Z,997.78
2023-04-22T03:19:16.713Z,997.75
2023-04-22T03:20:16.710Z,997.76
2023-04-22T03:21:16.696Z,997.77
2023-04-22T03:22:16.717Z,997.80
2023-04-22T03:23:16.672Z,997.77
2023-04-22T03:24:16.678Z,997.79
2023-04-22T03:25:16.641Z,997.72
2023-04-22T03:26:16.630Z,997.72
2023-04-22T03:27:16.629Z,997.72
2023-04-22T03:28:16.624Z,997.71
2023-04-22T03:29:16.579Z,997.72
2023-04-22T03:30:16.589Z,997.73
2023-04-22T03:31:16.586Z,997.69
2023-04-22T03:32:16.641Z,997.73
2023-04-22T03:33:16.603Z,997.68
2023-04-22T03:34:16.540Z,997.72
2023-04-22T03:35:16.546Z,997.71
2023-04-22T03:36:16.502Z,997.67
2023-04-22T03:37:16.513Z,997.73
2023-04-22T03:38:16.647Z,997.66
2023-04-22T03:39:16.445Z,997.68
2023-04-22T03:40:16.463Z,997.69
2023-04-22T03:41:16.496Z,997.68
2023-04-22T03:42:16.443Z,997.67
2023-04-22T03:43:16.440Z,997.66
2023-04-22T03:44:16.387Z,997.67
2023-04-22T03:45:16.387Z,997.64
2023-04-22T03:46:16.407Z,997.64
2023-04-22T03:47:16.364Z,997.65
2023-04-22T03:48:16.399Z,997.59
2023-04-22T03:49:16.328Z,997.60
2023-04-22T03:50:16.314Z,997.62
2023-04-22T03:51:16.406Z,997.56
2023-04-22T03:52:16.305Z,997.52
2023-04-22T03:53:16.298Z,997.59
2023-04-22T03:54:16.254Z,997.58
2023-04-22T03:55:16.254Z,997.59
2023-04-22T03:56:16.221Z,997.58
2023-04-22T03:57:16.226Z,997.52
2023-04-22T03:58:16.212Z,997.60
2023-04-22T03:59:16.219Z,997.63
2023-04-22T04:00:16.192Z,997.67
2023-04-22T04:01:16.180Z,997.66
2023-04-22T04:02:16.227Z,997.70
2023-04-22T04:03:16.309Z,997.72
2023-04-22T04:04:16.295Z,997.74
2023-04-22T04:05:16.251Z,997.73
2023-04-22T04:06:16.115Z,997.75
2023-04-22T04:07:16.110Z,997.72
2023-04-22T04:08:16.072Z,997.73
2023-04-22T04:09:16.087Z,997.71
2023-04-22T04:10:16.039Z,997.75
2023-04-22T04:11:16.049Z,997.73
2023-04-22T04:12:16.036Z,997.76
2023-04-22T04:13:16.080Z,997.71
2023-04-22T04:14:16.012Z,997.77
2023-04-22T04:15:15.996Z,997.77
2023-04-22T04:16:16.024Z,997.74
2023-04-22T04:17:15.959Z,997.71
2023-04-22T04:18:15.951Z,997.72
2023-04-22T04:19:15.966Z,997.73
2023-04-22T04:20:15.987Z,997.67
2023-04-22T04:21:15.913Z,997.69
2023-04-22T04:22:15.916Z,997.68
2023-04-22T04:23:15.889Z,997.69
2023-04-22T04:24:15.879Z,997.70
2023-04-22T04:25:15.854Z,997.65
2023-04-22T04:26:15.847Z,997.69
2023-04-22T04:27:15.833Z,997.68
2023-04-22T04:28:15.822Z,997.68
2023-04-22T04:29:15.813Z,997.70
2023-04-22T04:30:15.798Z,997.67
2023-04-22T04:31:15.839Z,997.73
2023-04-22T04:32:15.785Z,997.73
2023-04-22T04:33:15.750Z,997.74
2023-04-22T04:34:15.744Z,997.72
2023-04-22T04:35:15.748Z,997.75
2023-04-22T04:36:15.715Z,997.68
2023-04-22T04:37:15.699Z,997.72
2023-04-22T04:38:15.683Z,997.65
2023-04-22T04:39:15.666Z,997.70
2023-04-22T04:40:15.674Z,997.68
2023-04-22T04:41:15.684Z,997.69
2023-04-22T04:42:15.663Z,997.72
2023-04-22T04:43:15.645Z,997.67
2023-04-22T04:44:15.632Z,997.72
2023-04-22T04:45:15.618Z,997.74
2023-04-22T04:46:15.591Z,997.75
2023-04-22T04:47:15.590Z,997.69
2023-04-22T04:48:15.542Z,997.73
2023-04-22T04:49:15.582Z,997.71
2023-04-22T04:50:15.530Z,997.74
2023-04-22T04:51:15.974Z,997.70
2023-04-22T04:52:15.503Z,997.68
2023-04-22T04:53:15.477Z,997.70
2023-04-22T04:54:15.478Z,997.77
2023-04-22T04:55:15.465Z,997.80
2023-04-22T04:56:15.477Z,997.71
2023-04-22T04:57:15.452Z,997.72
2023-04-22T04:58:15.433Z,997.75
2023-04-22T04:59:15.408Z,997.73
2023-04-22T05:00:15.402Z,997.74
2023-04-22T05:01:15.399Z,997.75
2023-04-22T05:02:15.494Z,997.76
2023-04-22T05:03:15.497Z,997.73
2023-04-22T05:04:15.471Z,997.70
2023-04-22T05:05:15.350Z,997.73
2023-04-22T05:06:15.317Z,997.77
2023-04-22T05:07:15.407Z,997.73
2023-04-22T05:08:15.298Z,997.73
2023-04-22T05:09:15.307Z,997.74
2023-04-22T05:10:15.283Z,997.81
2023-04-22T05:11:15.265Z,997.79
2023-04-22T05:12:15.251Z,997.82
2023-04-22T05:13:15.233Z,997.83
2023-04-22T05:14:15.210Z,997.88
2023-04-22T05:15:15.201Z,997.89
2023-04-22T05:16:15.214Z,997.94
2023-04-22T05:17:15.172Z,997.92
2023-04-22T05:18:15.210Z,997.96
2023-04-22T05:19:15.149Z,997.91
2023-04-22T05:20:15.140Z,997.99
2023-04-22T05:21:15.122Z,997.93
2023-04-22T05:22:15.139Z,997.91
2023-04-22T05:23:15.098Z,997.92
2023-04-22T05:24:15.084Z,997.83
2023-04-22T05:25:15.088Z,997.84
2023-04-22T05:26:15.055Z,997.78
2023-04-22T05:27:15.056Z,997.80
2023-04-22T05:28:15.020Z,997.80
2023-04-22T05:29:15.027Z,997.88
2023-04-22T05:30:15.020Z,997.84
2023-04-22T05:31:14.994Z,997.83
2023-04-22T05:32:15.057Z,997.86
2023-04-22T05:33:15.032Z,997.77
2023-04-22T05:34:14.962Z,997.81
2023-04-22T05:35:14.941Z,997.77
2023-04-22T05:36:14.921Z,997.80
2023-04-22T05:37:14.931Z,997.83
2023-04-22T05:38:14.893Z,997.82
2023-04-22T05:39:14.892Z,997.80
2023-04-22T05:40:14.864Z,997.78
2023-04-22T05:41:14.859Z,997.70
2023-04-22T05:42:14.853Z,997.70
2023-04-22T05:43:14.830Z,997.71
2023-04-22T05:44:14.821Z,997.70
2023-04-22T05:45:14.830Z,997.62
2023-04-22T05:46:14.887Z,997.63
2023-04-22T05:47:14.788Z,997.59
2023-04-22T05:48:14.771Z,997.62
2023-04-22T05:49:14.757Z,997.66
2023-04-22T05:50:14.745Z,997.67
2023-04-22T05:51:14.743Z,997.71
2023-04-22T05:52:14.728Z,997.77
2023-04-22T05:53:14.736Z,997.70
2023-04-22T05:54:14.685Z,997.68
2023-04-22T05:55:14.687Z,997.70
2023-04-22T05:56:14.686Z,997.63
2023-04-22T05:57:14.674Z,997.66
2023-04-22T05:58:14.657Z,997.64
2023-04-22T05:59:14.621Z,997.64
2023-04-22T06:00:14.679Z,997.66
2023-04-22T06:01:14.608Z,997.62
2023-04-22T06:02:14.712Z,997.67
2023-04-22T06:03:14.800Z,997.62
2023-04-22T06:04:14.707Z,997.55
2023-04-22T06:05:14.582Z,997.56
2023-04-22T06:06:14.538Z,997.61
2023-04-22T06:07:14.536Z,997.56
2023-04-22T06:08:14.561Z,997.57
2023-04-22T06:09:14.537Z,997.57
2023-04-22T06:10:14.527Z,997.55
2023-04-22T06:11:14.448Z,997.53
2023-04-22T06:12:14.494Z,997.53
2023-04-22T06:13:14.443Z,997.58
2023-04-22T06:14:14.432Z,997.59
2023-04-22T06:15:14.524Z,997.54
2023-04-22T06:16:14.398Z,997.57
2023-04-22T06:17:14.394Z,997.64
2023-04-22T06:18:14.372Z,997.62
2023-04-22T06:19:14.583Z,997.60
2023-04-22T06:20:14.355Z,997.65
2023-04-22T06:21:14.347Z,997.66
2023-04-22T06:22:14.356Z,997.65
2023-04-22T06:23:14.323Z,997.63
2023-04-22T06:24:14.312Z,997.64
2023-04-22T06:25:14.275Z,997.59
2023-04-22T06:26:14.278Z,997.62
2023-04-22T06:27:14.262Z,997.60
2023-04-22T06:28:14.245Z,997.59
2023-04-22T06:29:14.245Z,997.60
2023-04-22T06:30:14.220Z,997.59
2023-04-22T06:31:14.213Z,997.61
2023-04-22T06:32:14.215Z,997.62
2023-04-22T06:33:14.283Z,997.59
2023-04-22T06:34:14.173Z,997.62
2023-04-22T06:35:14.178Z,997.61
2023-04-22T06:36:14.178Z,997.62
2023-04-22T06:37:14.137Z,997.68
2023-04-22T06:38:14.121Z,997.62
2023-04-22T06:39:14.180Z,997.62
2023-04-22T06:40:14.100Z,997.59
2023-04-22T06:41:14.082Z,997.58
2023-04-22T06:42:14.111Z,997.62
2023-04-22T06:43:14.055Z,997.59
2023-04-22T06:44:14.060Z,997.61
2023-04-22T06:45:14.054Z,997.56
2023-04-22T06:46:14.047Z,997.61
2023-04-22T06:47:14.032Z,997.62
2023-04-22T06:48:14.039Z,997.60
2023-04-22T06:49:13.966Z,997.58
2023-04-22T06:50:13.988Z,997.61
2023-04-22T06:51:13.946Z,997.65
2023-04-22T06:52:14.013Z,997.56
2023-04-22T06:53:13.918Z,997.59
2023-04-22T06:54:13.933Z,997.57
2023-04-22T06:55:13.910Z,997.56
2023-04-22T06:56:13.902Z,997.61
2023-04-22T06:57:13.914Z,997.50
2023-04-22T06:58:13.867Z,997.52
2023-04-22T06:59:13.865Z,997.53
2023-04-22T07:00:13.900Z,997.50
2023-04-22T07:01:13.865Z,997.52
2023-04-22T07:02:13.907Z,997.49
2023-04-22T07:03:13.860Z,997.52
2023-04-22T07:04:14.301Z,997.49
2023-04-22T07:05:13.781Z,997.50
2023-04-22T07:06:13.775Z,997.43
2023-04-22T07:07:13.750Z,997.44
2023-04-22T07:08:13.755Z,997.50
2023-04-22T07:09:13.720Z,997.45
2023-04-22T07:10:13.757Z,997.39
2023-04-22T07:11:14.423Z,997.34
2023-04-22T07:12:13.727Z,997.35
2023-04-22T07:13:13.673Z,997.36
2023-04-22T07:14:13.678Z,997.31
2023-04-22T07:15:13.645Z,997.36
2023-04-22T07:16:13.769Z,997.31
2023-04-22T07:17:13.646Z,997.32
2023-04-22T07:18:13.612Z,997.34
2023-04-22T07:19:13.596Z,997.34
2023-04-22T07:20:13.609Z,997.29
2023-04-22T07:21:13.569Z,997.28
2023-04-22T07:22:13.582Z,997.31
2023-04-22T07:23:13.582Z,997.27
2023-04-22T07:24:13.543Z,997.27
2023-04-22T07:25:13.542Z,997.27
2023-04-22T07:26:13.553Z,997.28
2023-04-22T07:27:13.486Z,997.31
2023-04-22T07:28:13.501Z,997.30
2023-04-22T07:29:13.463Z,997.34
2023-04-22T07:30:13.525Z,997.32
2023-04-22T07:31:13.491Z,997.32
2023-04-22T07:32:13.548Z,997.33
2023-04-22T07:33:13.443Z,997.34
2023-04-22T07:34:13.410Z,997.32
2023-04-22T07:35:13.412Z,997.30
2023-04-22T07:36:13.382Z,997.34
2023-04-22T07:37:13.365Z,997.33
2023-04-22T07:38:14.632Z,997.32
2023-04-22T07:39:13.398Z,997.35
2023-04-22T07:40:13.350Z,997.21
2023-04-22T07:41:13.319Z,997.22
2023-04-22T07:42:13.339Z,997.24
2023-04-22T07:43:13.327Z,997.24
2023-04-22T07:44:13.330Z,997.22
2023-04-22T07:45:13.299Z,997.19
2023-04-22T07:46:13.277Z,997.20
2023-04-22T07:47:13.253Z,997.21
2023-04-22T07:48:13.251Z,997.25
2023-04-22T07:49:13.297Z,997.25
2023-04-22T07:50:13.277Z,997.20
2023-04-22T07:51:13.233Z,997.21
2023-04-22T07:52:13.250Z,997.21
2023-04-22T07:53:13.186Z,997.21
2023-04-22T07:54:13.205Z,997.20
2023-04-22T07:55:13.151Z,997.18
2023-04-22T07:56:13.144Z,997.22
2023-04-22T07:57:13.119Z,997.19
2023-04-22T07:58:13.116Z,997.18
2023-04-22T07:59:13.108Z,997.12
2023-04-22T08:00:13.086Z,997.13
2023-04-22T08:01:13.088Z,997.16
2023-04-22T08:02:13.264Z,997.11
2023-04-22T08:03:13.303Z,997.19
2023-04-22T08:04:13.396Z,997.22
2023-04-22T08:05:13.135Z,997.18
2023-04-22T08:06:13.070Z,997.16
2023-04-22T08:07:31.825Z,997.14
2023-04-22T08:08:13.993Z,997.13
2023-04-22T08:09:12.981Z,997.15
2023-04-22T08:10:12.981Z,997.16
2023-04-22T08:11:12.975Z,997.16
2023-04-22T08:12:12.933Z,997.14
2023-04-22T08:13:12.935Z,997.10
2023-04-22T08:14:12.931Z,997.12
2023-04-22T08:15:12.928Z,997.11
2023-04-22T08:16:12.969Z,997.12
2023-04-22T08:17:12.878Z,997.11
2023-04-22T08:18:13.005Z,997.07
2023-04-22T08:19:18.031Z,997.05
2023-04-22T08:20:13.164Z,997.06
2023-04-22T08:21:12.830Z,997.07
2023-04-22T08:22:12.835Z,997.04
2023-04-22T08:23:12.814Z,997.06
2023-04-22T08:24:12.816Z,997.02
2023-04-22T08:25:12.827Z,996.97
2023-04-22T08:26:12.765Z,996.92
2023-04-22T08:27:12.786Z,996.98
2023-04-22T08:28:12.788Z,996.98
2023-04-22T08:29:12.749Z,996.92
2023-04-22T08:30:12.727Z,996.99
2023-04-22T08:31:12.731Z,996.92
2023-04-22T08:32:12.718Z,996.95
2023-04-22T08:33:12.727Z,996.88
2023-04-22T08:34:12.680Z,996.86
2023-04-22T08:35:12.708Z,996.89
2023-04-22T08:36:12.656Z,996.91
2023-04-22T08:37:12.639Z,996.90
2023-04-22T08:38:12.617Z,996.94
2023-04-22T08:39:12.622Z,996.90
2023-04-22T08:40:12.592Z,996.87
2023-04-22T08:41:12.595Z,996.91
2023-04-22T08:42:12.584Z,996.85
2023-04-22T08:43:12.545Z,996.91
2023-04-22T08:44:12.610Z,996.88
2023-04-22T08:45:12.594Z,996.90
2023-04-22T08:46:12.556Z,996.90
2023-04-22T08:47:12.550Z,996.90
2023-04-22T08:48:12.503Z,996.91
2023-04-22T08:49:12.489Z,996.93
2023-04-22T08:50:12.479Z,996.93
2023-04-22T08:51:12.464Z,996.93
2023-04-22T08:52:12.440Z,996.93
2023-04-22T08:53:12.441Z,996.90
2023-04-22T08:54:12.440Z,996.92
2023-04-22T08:55:12.392Z,996.90
2023-04-22T08:56:12.389Z,996.88
2023-04-22T08:57:12.431Z,996.82
2023-04-22T08:58:12.365Z,996.87
2023-04-22T08:59:12.413Z,996.84
2023-04-22T09:00:12.347Z,996.81
2023-04-22T09:01:12.354Z,996.84
2023-04-22T09:02:12.394Z,996.80
2023-04-22T09:03:12.376Z,996.84
2023-04-22T09:04:12.381Z,996.80
2023-04-22T09:05:12.288Z,996.79
2023-04-22T09:06:12.280Z,996.77
2023-04-22T09:07:12.243Z,996.78
2023-04-22T09:08:12.242Z,996.76
2023-04-22T09:09:12.246Z,996.77
2023-04-22T09:10:12.206Z,996.77
2023-04-22T09:11:12.250Z,996.74
2023-04-22T09:12:12.212Z,996.73
2023-04-22T09:13:12.176Z,996.77
2023-04-22T09:14:12.172Z,996.80
2023-04-22T09:15:12.168Z,996.77
2023-04-22T09:16:12.169Z,996.71
2023-04-22T09:17:12.136Z,996.69
2023-04-22T09:18:12.117Z,996.74
2023-04-22T09:19:12.112Z,996.67
2023-04-22T09:20:12.090Z,996.70
2023-04-22T09:21:12.091Z,996.68
2023-04-22T09:22:12.058Z,996.66
2023-04-22T09:23:12.089Z,996.68
2023-04-22T09:24:12.046Z,996.67
2023-04-22T09:25:12.021Z,996.64
2023-04-22T09:26:12.015Z,996.63
2023-04-22T09:27:11.993Z,996.66
2023-04-22T09:28:11.991Z,996.64
2023-04-22T09:29:11.966Z,996.63
2023-04-22T09:30:12.013Z,996.63
2023-04-22T09:31:12.022Z,996.57
2023-04-22T09:32:11.987Z,996.54
2023-04-22T09:33:12.017Z,996.57
2023-04-22T09:34:11.902Z,996.58
2023-04-22T09:35:11.945Z,996.56
2023-04-22T09:36:11.901Z,996.55
2023-04-22T09:37:11.866Z,996.56
2023-04-22T09:38:11.896Z,996.62
2023-04-22T09:39:11.861Z,996.57
2023-04-22T09:40:11.845Z,996.58
2023-04-22T09:41:11.819Z,996.55
2023-04-22T09:42:11.841Z,996.58
2023-04-22T09:43:11.820Z,996.56
2023-04-22T09:44:11.824Z,996.51
2023-04-22T09:45:11.771Z,996.50
2023-04-22T09:46:11.798Z,996.53
2023-04-22T09:47:11.753Z,996.52
2023-04-22T09:48:11.757Z,996.58
2023-04-22T09:49:11.702Z,996.55
2023-04-22T09:50:11.709Z,996.57
2023-04-22T09:51:11.754Z,996.57
2023-04-22T09:52:11.685Z,996.62
2023-04-22T09:53:11.696Z,996.59
2023-04-22T09:54:11.819Z,996.53
2023-04-22T09:55:11.633Z,996.54
2023-04-22T09:56:11.645Z,996.54
2023-04-22T09:57:11.604Z,996.54
2023-04-22T09:58:11.637Z,996.57
2023-04-22T09:59:11.584Z,996.54
2023-04-22T10:00:11.570Z,996.57
2023-04-22T10:01:11.637Z,996.52
2023-04-22T10:02:11.578Z,996.54
2023-04-22T10:03:11.742Z,996.56
2023-04-22T10:04:11.573Z,996.55
2023-04-22T10:05:11.513Z,996.53
2023-04-22T10:06:11.522Z,996.51
2023-04-22T10:07:11.485Z,996.49
2023-04-22T10:08:11.565Z,996.49
2023-04-22T10:09:11.460Z,996.49
2023-04-22T10:10:11.464Z,996.47
2023-04-22T10:11:11.424Z,996.45
2023-04-22T10:12:11.423Z,996.45
2023-04-22T10:13:11.425Z,996.44
2023-04-22T10:14:11.405Z,996.40
2023-04-22T10:15:11.380Z,996.38
2023-04-22T10:16:11.378Z,996.38
2023-04-22T10:17:11.374Z,996.33
2023-04-22T10:18:11.365Z,996.34
2023-04-22T10:19:11.332Z,996.34
2023-04-22T10:20:11.318Z,996.33
2023-04-22T10:21:11.299Z,996.34
2023-04-22T10:22:11.302Z,996.35
2023-04-22T10:23:11.292Z,996.32
2023-04-22T10:24:11.291Z,996.28
2023-04-22T10:25:11.247Z,996.29
2023-04-22T10:26:11.521Z,996.27
2023-04-22T10:27:11.255Z,996.28
2023-04-22T10:28:11.205Z,996.23
2023-04-22T10:29:11.211Z,996.23
2023-04-22T10:30:11.208Z,996.24
2023-04-22T10:31:11.223Z,996.25
2023-04-22T10:32:11.276Z,996.23
2023-04-22T10:33:11.155Z,996.25
2023-04-22T10:34:11.161Z,996.30
2023-04-22T10:35:11.219Z,996.19
2023-04-22T10:36:11.210Z,996.19
2023-04-22T10:37:11.587Z,996.15
2023-04-22T10:38:11.174Z,996.21
2023-04-22T10:39:11.088Z,996.25
2023-04-22T10:40:11.070Z,996.16
2023-04-22T10:41:11.050Z,996.11
2023-04-22T10:42:11.048Z,996.15
2023-04-22T10:43:11.193Z,996.17
2023-04-22T10:44:11.037Z,996.08
2023-04-22T10:45:10.998Z,996.12
2023-04-22T10:46:11.010Z,996.08
2023-04-22T10:47:10.974Z,996.05
2023-04-22T10:48:10.989Z,996.12
2023-04-22T10:49:11.391Z,996.09
2023-04-22T10:50:10.968Z,996.06
2023-04-22T10:51:11.024Z,996.04
2023-04-22T10:52:10.963Z,996.06
2023-04-22T10:53:10.980Z,996.03
2023-04-22T10:54:10.986Z,996.08
2023-04-22T10:55:10.947Z,996.02
2023-04-22T10:56:10.898Z,995.98
2023-04-22T10:57:10.860Z,995.99
2023-04-22T10:58:10.823Z,996.03
2023-04-22T10:59:10.865Z,995.99
2023-04-22T11:00:10.838Z,995.96
2023-04-22T11:01:10.949Z,995.95
2023-04-22T11:02:10.860Z,995.94
2023-04-22T11:03:10.981Z,995.93
2023-04-22T11:04:10.838Z,995.94
2023-04-22T11:05:10.759Z,995.89
2023-04-22T11:06:10.771Z,995.88
2023-04-22T11:07:10.757Z,995.84
2023-04-22T11:08:10.722Z,995.89
2023-04-22T11:09:10.719Z,995.82
2023-04-22T11:10:10.736Z,995.87
2023-04-22T11:11:10.699Z,995.80
2023-04-22T11:12:10.660Z,995.81
2023-04-22T11:13:10.671Z,995.74
2023-04-22T11:14:10.640Z,995.74
2023-04-22T11:15:10.680Z,995.78
2023-04-22T11:16:10.729Z,995.75
2023-04-22T11:17:10.631Z,995.74
2023-04-22T11:18:10.605Z,995.73
2023-04-22T11:19:10.667Z,995.75
2023-04-22T11:20:10.566Z,995.75
2023-04-22T11:21:10.591Z,995.72
2023-04-22T11:22:10.545Z,995.73
2023-04-22T11:23:10.546Z,995.66
2023-04-22T11:24:10.518Z,995.67
2023-04-22T11:25:10.504Z,995.73
2023-04-22T11:26:10.476Z,995.71
2023-04-22T11:27:10.764Z,995.70
2023-04-22T11:28:10.452Z,995.67
2023-04-22T11:29:10.508Z,995.70
2023-04-22T11:30:10.536Z,995.69
2023-04-22T11:31:10.583Z,995.71
2023-04-22T11:32:10.426Z,995.62
2023-04-22T11:33:10.400Z,995.68
2023-04-22T11:34:10.359Z,995.64
2023-04-22T11:35:10.376Z,995.69
2023-04-22T11:36:10.398Z,995.64
2023-04-22T11:37:10.385Z,995.66
2023-04-22T11:38:10.338Z,995.63
2023-04-22T11:39:10.336Z,995.64
2023-04-22T11:40:27.859Z,995.63
2023-04-22T11:41:11.303Z,995.62
2023-04-22T11:42:10.290Z,995.60
2023-04-22T11:43:10.262Z,995.59
2023-04-22T11:44:10.292Z,995.60
2023-04-22T11:45:10.225Z,995.62
2023-04-22T11:46:10.317Z,995.57
2023-04-22T11:47:10.284Z,995.54
2023-04-22T11:48:10.221Z,995.56
2023-04-22T11:49:10.193Z,995.55
2023-04-22T11:50:10.182Z,995.57
2023-04-22T11:51:10.183Z,995.58
2023-04-22T11:52:10.146Z,995.59
2023-04-22T11:53:10.146Z,995.62
2023-04-22T11:54:10.216Z,995.57
2023-04-22T11:55:10.206Z,995.63
2023-04-22T11:56:10.102Z,995.58
2023-04-22T11:57:10.127Z,995.59
2023-04-22T11:58:10.113Z,995.56
2023-04-22T11:59:10.054Z,995.57
2023-04-22T12:00:10.050Z,995.54
2023-04-22T12:01:10.030Z,995.54
2023-04-22T12:02:10.171Z,995.54
2023-04-22T12:03:10.949Z,995.51
2023-04-22T12:04:10.049Z,995.55
2023-04-22T12:05:10.049Z,995.56
2023-04-22T12:06:09.975Z,995.46
2023-04-22T12:07:09.970Z,995.52
2023-04-22T12:08:09.929Z,995.48
2023-04-22T12:09:11.078Z,995.48
2023-04-22T12:10:09.915Z,995.54
2023-04-22T12:11:09.924Z,995.46
2023-04-22T12:12:09.940Z,995.47
2023-04-22T12:13:09.938Z,995.45
2023-04-22T12:14:09.894Z,995.43
2023-04-22T12:15:11.589Z,995.43
2023-04-22T12:16:09.847Z,995.42
2023-04-22T12:17:09.885Z,995.42
2023-04-22T12:18:09.818Z,995.36
2023-04-22T12:19:09.814Z,995.35
2023-04-22T12:20:09.804Z,995.37
2023-04-22T12:21:09.774Z,995.38
2023-04-22T12:22:09.750Z,995.37
2023-04-22T12:23:09.755Z,995.34
2023-04-22T12:24:09.741Z,995.38
2023-04-22T12:25:09.764Z,995.31
2023-04-22T12:26:09.765Z,995.32
2023-04-22T12:27:09.791Z,995.28
2023-04-22T12:28:09.679Z,995.28